Home   Weather   USA   Boston   Past weeks
Flag for USA

Past Weather in Boston, Massachusetts, USA — November 2016

Currently: 37 °F. Overcast. (Weather station: Logan International Airport, USA). See more current weather

November 2016 Weather in Boston — Graph

°F

High & Low Weather Summary for November 2016

 TemperatureHumidityPressure
High70 °F (Nov 2, 2:54 pm)100% (Nov 3, 7:54 am)30.48 "Hg (Nov 3, 7:54 am)
Low31 °F (Nov 21, 12:54 am)14% (Nov 14, 2:54 pm)29.26 "Hg (Nov 20, 7:54 am)
Average46 °F70%29.99 "Hg
* Reported Nov 1 12:54 am — Nov 30 11:54 pm, Boston. Weather by CustomWeather, © 2021

Note: Actual official high and low records may vary slightly from our data, if they occured in-between our weather recording intervals... More about our weather records

Boston Weather History for November 1, 2016

Scroll right to see more
 ConditionsComfort  
Time TempWeatherWind HumidityBarometerVisibility
12:54 am
Tue, Nov 1
38 °FClear.9 mph73%30.32 "Hg10 mi
1:54 am37 °FClear.8 mph79%30.33 "Hg10 mi
2:54 am36 °FClear.8 mph82%30.33 "Hg10 mi
3:54 am36 °FPassing clouds.7 mph82%30.36 "Hg10 mi
4:54 am35 °FPassing clouds.8 mph85%30.37 "Hg10 mi
5:54 am35 °FClear.6 mph82%30.37 "Hg10 mi
6:54 am34 °FPassing clouds.6 mph85%30.37 "Hg10 mi
7:54 am36 °FPassing clouds.5 mph82%30.39 "Hg10 mi
8:54 am39 °FPassing clouds.5 mph76%30.41 "Hg10 mi
9:54 am43 °FPassing clouds.5 mph74%30.42 "Hg10 mi
10:54 am48 °FPassing clouds.No wind68%30.42 "Hg10 mi
11:54 am49 °FPassing clouds.No wind69%30.41 "Hg10 mi
12:54 pm49 °FPassing clouds.3 mph69%30.39 "Hg10 mi
1:54 pm50 °FPassing clouds.7 mph71%30.37 "Hg10 mi
2:54 pm50 °FPassing clouds.9 mph68%30.35 "Hg10 mi
3:54 pm50 °FScattered clouds.13 mph71%30.34 "Hg10 mi
4:54 pm50 °FScattered clouds.14 mph74%30.32 "Hg10 mi
5:54 pm49 °FPassing clouds.10 mph77%30.33 "Hg10 mi
6:54 pm48 °FPassing clouds.10 mph83%30.33 "Hg10 mi
7:54 pm47 °FClear.6 mph77%30.33 "Hg10 mi
8:54 pm48 °FClear.9 mph80%30.33 "Hg10 mi
9:54 pm47 °FClear.9 mph86%30.33 "Hg10 mi
10:54 pm47 °FPassing clouds.7 mph90%30.32 "Hg10 mi
11:54 pm46 °FClear.9 mph89%30.30 "Hg10 mi
Weather by CustomWeather, © 2021

See weather overview